Time;durP1;ratioP1;P1;durP2;ratioP2;P2;SDS_P1;SDS_P2;PMS_P1;PMS_P2;Temp;Humidity;BMP_temperature;BMP_pressure;BME280_temperature;BME280_humidity;BME280_pressure;Samples;Min_cycle;Max_cycle;Signal;HPM_P1;HPM_P2
2022/06/27 00:02:16;;;;;;;2.38;1.35;;;17.10;99.90;;;17.02;92.70;97838.06;5000996;28;20132;-69
2022/06/27 00:04:43;;;;;;;3.78;2.40;;;17.10;99.90;;;17.03;92.77;97837.09;5004910;28;20424;-70
2022/06/27 00:07:11;;;;;;;5.20;2.42;;;17.10;99.90;;;17.02;92.84;97838.06;5004823;28;20077;-67
2022/06/27 00:09:39;;;;;;;2.60;1.88;;;17.10;99.90;;;17.15;92.92;97845.94;5004876;28;20126;-68
2022/06/27 00:12:08;;;;;;;2.30;1.83;;;17.20;99.90;;;17.14;93.07;97847.75;5003703;28;20120;-67
2022/06/27 00:14:36;;;;;;;2.88;1.67;;;17.20;99.90;;;17.26;93.16;97850.50;5005534;28;20691;-69
2022/06/27 00:17:03;;;;;;;3.25;1.52;;;17.20;99.90;;;17.17;93.32;97853.72;5003595;28;20042;-68
2022/06/27 00:19:31;;;;;;;4.13;3.33;;;17.20;99.90;;;17.02;93.33;97845.09;4999983;28;20480;-68
2022/06/27 00:21:58;;;;;;;4.57;1.90;;;17.20;99.90;;;17.15;93.35;97840.69;5002117;28;20528;-68
2022/06/27 00:24:25;;;;;;;5.22;3.42;;;17.20;99.90;;;16.97;93.41;97839.28;5002395;28;20080;-69
2022/06/27 00:26:53;;;;;;;4.47;3.67;;;17.20;99.90;;;16.77;93.46;97823.03;5005566;28;20070;-67
2022/06/27 00:29:20;;;;;;;6.70;3.28;;;17.10;99.90;;;16.64;93.49;97794.13;5001859;28;20073;-69
2022/06/27 00:31:47;;;;;;;5.32;3.97;;;17.00;99.90;;;16.51;93.47;97780.13;5004161;28;20150;-68
2022/06/27 00:34:14;;;;;;;6.50;5.13;;;16.80;99.90;;;16.47;93.39;97760.31;5001358;28;20050;-68
2022/06/27 00:36:41;;;;;;;4.40;3.70;;;16.80;99.90;;;16.47;93.36;97750.66;4998447;28;20662;-68
2022/06/27 00:39:08;;;;;;;4.68;3.17;;;16.70;99.90;;;16.48;93.39;97749.72;5003708;28;20050;-69
2022/06/27 00:41:35;;;;;;;3.30;2.65;;;16.70;99.90;;;16.56;93.40;97762.34;5002693;28;20117;-68
2022/06/27 00:44:03;;;;;;;4.47;2.28;;;16.70;99.90;;;16.61;93.45;97760.25;5001348;28;20046;-70
2022/06/27 00:46:30;;;;;;;4.45;2.60;;;16.70;99.90;;;16.52;93.52;97743.34;4996479;28;20097;-68
2022/06/27 00:48:57;;;;;;;3.90;2.67;;;16.70;99.90;;;16.47;93.52;97744.59;4999817;28;20133;-68
2022/06/27 00:51:24;;;;;;;3.90;2.70;;;16.70;99.90;;;16.45;93.50;97741.22;5000135;28;20080;-69
2022/06/27 00:53:55;;;;;;;3.70;2.97;;;16.70;99.90;;;16.32;93.54;97735.91;5000328;28;20133;-68
2022/06/27 00:56:23;;;;;;;5.82;3.40;;;16.60;99.90;;;16.37;93.46;97746.09;4999795;28;20078;-68
2022/06/27 00:58:50;;;;;;;5.03;3.33;;;16.60;99.90;;;16.44;93.44;97752.63;4997885;28;20143;-68
2022/06/27 01:01:17;;;;;;;5.70;3.90;;;16.60;99.90;;;16.36;93.45;97742.66;4995186;28;20057;-68
2022/06/27 01:03:44;;;;;;;4.10;3.00;;;16.60;99.90;;;16.43;93.44;97738.69;4997535;28;20054;-68
2022/06/27 01:06:11;;;;;;;4.07;3.00;;;16.70;99.90;;;16.49;93.40;97719.13;5013143;28;20100;-69
2022/06/27 01:08:39;;;;;;;5.13;3.55;;;16.70;99.90;;;16.43;93.42;97703.81;4999711;28;20126;-69
2022/06/27 01:11:06;;;;;;;3.67;2.45;;;16.70;99.90;;;16.57;93.39;97695.03;4996493;28;20128;-69
2022/06/27 01:13:34;;;;;;;2.63;2.05;;;16.80;99.90;;;16.52;93.44;97692.72;4999066;28;20196;-68
2022/06/27 01:16:01;;;;;;;2.95;2.22;;;16.80;99.90;;;16.66;93.42;97678.72;5012793;28;20543;-69
2022/06/27 01:18:28;;;;;;;3.65;1.77;;;16.80;99.90;;;16.80;93.44;97697.03;5000424;28;20161;-68
2022/06/27 01:20:55;;;;;;;3.05;2.08;;;16.80;99.90;;;16.71;93.56;97685.31;4998030;28;20093;-68
2022/06/27 01:23:23;;;;;;;4.65;2.55;;;16.90;99.90;;;16.67;93.63;97685.63;4999402;28;20133;-68
2022/06/27 01:25:50;;;;;;;2.50;1.95;;;17.00;99.90;;;16.80;93.64;97689.16;4995758;28;20073;-68
2022/06/27 01:28:17;;;;;;;4.68;3.40;;;17.00;99.90;;;16.58;93.78;97691.47;4996709;28;20121;-68
2022/06/27 01:30:44;;;;;;;5.22;3.03;;;17.00;99.90;;;16.51;93.79;97698.88;5001871;28;20457;-68
2022/06/27 01:33:11;;;;;;;5.47;2.70;;;16.90;99.90;;;16.47;93.74;97705.28;5001703;28;20125;-67
2022/06/27 01:35:38;;;;;;;4.25;2.00;;;16.90;99.90;;;16.60;93.66;97698.28;4998941;28;20081;-68
2022/06/27 01:38:05;;;;;;;3.80;3.03;;;16.90;99.90;;;16.48;93.76;97702.56;4997064;28;20054;-69
2022/06/27 01:40:34;;;;;;;4.47;2.60;;;16.90;99.90;;;16.71;93.71;97687.94;4995789;28;20084;-68
2022/06/27 01:43:02;;;;;;;5.60;2.85;;;16.90;99.90;;;16.59;93.83;97695.78;5001464;28;20089;-70
2022/06/27 01:45:29;;;;;;;3.75;2.70;;;16.90;99.90;;;16.52;93.83;97692.72;4999106;28;20140;-69
2022/06/27 01:47:56;;;;;;;3.75;2.60;;;17.00;99.90;;;16.63;93.77;97685.00;5002771;28;20140;-68
2022/06/27 01:50:25;;;;;;;4.80;3.95;;;17.00;99.90;;;16.63;93.83;97684.16;4996569;28;20050;-68
2022/06/27 01:52:54;;;;;;;3.55;2.83;;;17.00;99.90;;;16.70;93.82;97688.06;4997714;28;20077;-68
2022/06/27 01:55:24;;;;;;;3.35;2.20;;;17.00;99.90;;;16.66;93.88;97682.16;4995163;28;20134;-68
2022/06/27 01:57:52;;;;;;;4.05;3.30;;;17.10;99.90;;;16.71;93.90;97666.97;5000270;28;20395;-69
2022/06/27 02:00:20;;;;;;;3.75;2.80;;;17.10;99.90;;;16.90;93.91;97658.78;4996453;28;20112;-68
2022/06/27 02:02:47;;;;;;;3.92;2.17;;;17.10;99.90;;;16.90;93.91;97634.31;5000404;28;20132;-69
2022/06/27 02:05:16;;;;;;;3.67;2.92;;;17.20;99.90;;;17.00;94.00;97645.88;4999189;28;20532;-68
2022/06/27 02:07:45;;;;;;;4.20;2.35;;;17.20;99.90;;;16.99;94.14;97661.72;4998507;28;20077;-68
2022/06/27 02:10:12;;;;;;;6.43;2.88;;;17.30;99.90;;;16.95;94.20;97660.25;4999157;28;20073;-70
2022/06/27 02:12:40;;;;;;;3.65;1.52;;;17.30;99.90;;;17.04;94.30;97670.13;4996031;28;20125;-70
2022/06/27 02:15:07;;;;;;;4.10;3.10;;;17.30;99.90;;;16.79;94.42;97658.66;4997097;28;20133;-69
2022/06/27 02:17:34;;;;;;;3.08;2.78;;;17.30;99.90;;;16.69;94.50;97652.28;4999889;28;20048;-68
2022/06/27 02:20:05;;;;;;;4.50;2.47;;;17.20;99.90;;;16.82;94.43;97649.75;5004697;28;20054;-67
2022/06/27 02:22:32;;;;;;;2.15;1.67;;;17.20;99.90;;;16.93;94.47;97637.59;4994763;28;20078;-67
2022/06/27 02:24:59;;;;;;;4.53;2.42;;;17.20;99.90;;;17.15;94.53;97646.59;4998884;28;20053;-67
2022/06/27 02:27:29;;;;;;;4.85;3.95;;;17.30;99.90;;;16.88;94.76;97658.03;5001995;28;20114;-68
2022/06/27 02:29:57;;;;;;;4.28;3.13;;;17.30;99.90;;;16.68;94.81;97676.84;4997233;28;20512;-69
2022/06/27 02:32:25;;;;;;;4.00;3.05;;;17.30;99.90;;;16.55;94.71;97684.66;4991609;28;20192;-69
2022/06/27 02:34:55;;;;;;;6.15;3.35;;;17.30;99.90;;;16.59;94.60;97665.19;4992239;28;20085;-68
2022/06/27 02:37:24;;;;;;;2.88;2.30;;;17.20;99.90;;;16.80;94.58;97652.47;4997235;28;20531;-67
2022/06/27 02:39:55;;;;;;;4.32;2.28;;;17.20;99.90;;;16.83;94.66;97657.50;4997079;28;20185;-68
2022/06/27 02:42:23;;;;;;;3.50;2.47;;;17.20;99.90;;;16.63;94.82;97676.31;4996098;28;20053;-69
2022/06/27 02:44:50;;;;;;;4.50;4.00;;;17.10;99.90;;;16.50;94.74;97684.94;4994830;28;20488;-68
2022/06/27 02:47:21;;;;;;;4.78;3.35;;;17.10;99.90;;;16.65;94.58;97693.63;4995876;28;20074;-67
2022/06/27 02:49:49;;;;;;;6.18;2.85;;;17.10;99.90;;;16.52;94.57;97704.03;4999206;28;20127;-67
2022/06/27 02:52:40;;;;;;;4.80;2.72;;;17.00;99.90;;;16.45;94.46;97720.25;4996806;28;20047;-68
2022/06/27 02:55:13;;;;;;;4.25;3.08;;;16.90;99.90;;;16.41;94.34;97717.00;4996904;28;20053;-68
2022/06/27 02:58:25;;;;;;;5.38;2.88;;;16.90;99.90;;;16.52;94.26;97708.44;4996404;28;20477;-67
2022/06/27 03:00:54;;;;;;;3.88;2.85;;;16.90;99.90;;;16.72;94.19;97713.22;4999764;28;20132;-65
2022/06/27 03:03:24;;;;;;;6.00;3.90;;;16.90;99.90;;;16.49;94.28;97721.75;4993315;28;20448;-66
2022/06/27 03:05:59;;;;;;;7.00;3.88;;;17.00;99.90;;;16.60;94.14;97719.25;4994607;28;20050;-66
2022/06/27 03:08:47;;;;;;;5.78;3.63;;;17.00;99.90;;;16.55;94.10;97718.72;5000273;28;20152;-65
2022/06/27 03:11:17;;;;;;;6.85;3.47;;;17.00;99.90;;;16.56;94.07;97715.16;5004047;28;20756;-66
2022/06/27 03:13:46;;;;;;;4.15;2.67;;;17.10;99.90;;;16.59;94.02;97708.88;4992068;28;20141;-66
2022/06/27 03:16:15;;;;;;;6.28;3.25;;;17.10;99.90;;;16.60;94.04;97703.53;5001513;28;20421;-65
2022/06/27 03:18:43;;;;;;;4.70;4.00;;;17.10;99.90;;;16.68;94.02;97688.16;4995864;28;20173;-66
2022/06/27 03:21:11;;;;;;;6.65;2.80;;;17.20;99.90;;;16.64;94.01;97691.06;4996721;28;20108;-66
2022/06/27 03:23:39;;;;;;;7.70;4.50;;;17.20;99.90;;;16.59;93.96;97704.47;4998889;28;20081;-66
2022/06/27 03:26:06;;;;;;;6.38;5.10;;;17.20;99.90;;;16.47;93.98;97707.91;4996557;28;20567;-66
2022/06/27 03:28:33;;;;;;;7.55;5.13;;;17.10;99.90;;;16.49;93.86;97717.34;4996678;28;20050;-66
2022/06/27 03:31:00;;;;;;;7.18;6.25;;;17.20;99.90;;;16.48;93.80;97725.28;4998094;28;20133;-66
2022/06/27 03:33:28;;;;;;;7.43;5.43;;;17.20;99.90;;;16.36;93.76;97739.19;5000543;28;20138;-66
2022/06/27 03:36:00;;;;;;;8.18;5.15;;;17.20;99.90;;;16.42;93.63;97723.06;5000797;28;20401;-65
2022/06/27 03:38:28;;;;;;;6.60;5.10;;;17.20;99.90;;;16.51;93.57;97718.09;5003241;28;20574;-65
2022/06/27 03:40:55;;;;;;;6.88;5.13;;;17.20;99.90;;;16.56;93.53;97715.16;4999402;28;20049;-67
2022/06/27 03:43:22;;;;;;;7.25;5.68;;;17.10;99.90;;;16.45;93.55;97728.13;4994751;28;20146;-66
2022/06/27 03:45:49;;;;;;;6.20;5.32;;;17.20;99.90;;;16.63;93.50;97733.97;4997645;28;20069;-65
2022/06/27 03:51:01;;;;;;;10.60;8.38;;;17.10;99.90;;;16.40;93.47;97731.03;5001347;28;20078;-67
2022/06/27 03:53:29;;;;;;;6.45;4.95;;;17.10;99.90;;;16.68;93.37;97726.63;4997839;28;20409;-65
2022/06/27 03:55:56;;;;;;;10.15;7.88;;;17.10;99.90;;;16.58;93.45;97722.91;4998759;28;20449;-66
2022/06/27 03:58:22;;;;;;;10.75;8.43;;;17.20;99.90;;;16.64;93.45;97728.59;5001492;28;20045;-65
2022/06/27 04:00:50;;;;;;;12.10;9.32;;;17.10;99.90;;;16.58;93.50;97713.28;4998696;28;20046;-67
2022/06/27 04:03:17;;;;;;;11.70;10.50;;;17.10;99.90;;;16.50;93.49;97724.25;4999657;28;20054;-68
2022/06/27 04:05:44;;;;;;;7.85;7.05;;;17.10;99.90;;;16.69;93.41;97730.94;4997042;28;20077;-66
2022/06/27 04:08:11;;;;;;;11.13;9.82;;;17.10;99.90;;;16.52;93.43;97743.34;4995216;28;20042;-66
2022/06/27 04:10:38;;;;;;;11.52;10.20;;;17.10;99.90;;;16.53;93.36;97741.56;4999165;28;20078;-66
2022/06/27 04:13:05;;;;;;;10.60;9.55;;;17.10;99.90;;;16.51;93.36;97730.31;4998347;28;20126;-67
2022/06/27 04:15:32;;;;;;;17.17;13.05;;;17.00;99.90;;;16.55;93.33;97713.47;4997608;28;20133;-65
2022/06/27 04:17:59;;;;;;;20.25;13.07;;;17.10;99.90;;;16.58;93.35;97701.94;4998875;28;20061;-66
2022/06/27 04:20:26;;;;;;;17.02;12.77;;;17.10;99.90;;;16.58;93.35;97712.44;5001541;28;20112;-66
2022/06/27 04:22:53;;;;;;;13.93;10.93;;;17.20;99.90;;;16.79;93.35;97716.31;5000427;28;20513;-66
2022/06/27 04:25:20;;;;;;;12.40;10.10;;;17.20;99.90;;;16.79;93.37;97718.09;4996764;28;21859;-65
2022/06/27 04:27:47;;;;;;;14.35;12.13;;;17.20;99.90;;;16.77;93.43;97727.81;4995072;28;20089;-66
2022/06/27 04:30:17;;;;;;;11.77;9.40;;;17.20;99.90;;;16.96;93.43;97728.31;5004123;28;20077;-67
2022/06/27 04:32:48;;;;;;;11.88;9.75;;;17.30;99.90;;;17.05;93.48;97732.94;5000968;28;20084;-67
2022/06/27 04:35:16;;;;;;;14.50;11.52;;;17.30;99.90;;;16.97;93.62;97723.91;4996302;28;20042;-67
2022/06/27 04:37:44;;;;;;;14.55;12.00;;;17.40;99.90;;;17.05;93.70;97734.72;4998682;28;20144;-68
2022/06/27 04:40:14;;;;;;;15.63;11.07;;;17.40;99.90;;;16.89;93.76;97733.13;4999699;28;20141;-67
2022/06/27 04:42:43;;;;;;;15.80;11.60;;;17.40;99.90;;;16.89;93.75;97727.03;5000939;28;20058;-66
2022/06/27 04:45:13;;;;;;;14.90;9.95;;;17.30;99.90;;;16.89;93.74;97720.00;4999951;28;20097;-67
2022/06/27 04:47:42;;;;;;;12.77;10.90;;;17.30;99.90;;;16.98;93.78;97726.44;5006107;28;20105;-67
2022/06/27 04:50:15;;;;;;;14.32;10.02;;;17.40;99.90;;;17.00;93.79;97737.66;5004198;28;20062;-66
2022/06/27 04:52:42;;;;;;;12.27;9.50;;;17.40;99.90;;;16.99;93.81;97748.25;5003675;28;20073;-67
2022/06/27 04:55:12;;;;;;;14.15;8.13;;;17.40;99.90;;;17.00;93.87;97760.44;4997706;28;20256;-67
2022/06/27 04:57:42;;;;;;;16.48;11.40;;;17.40;99.90;;;16.93;93.95;97766.06;5006047;28;20077;-68
2022/06/27 05:00:13;;;;;;;17.10;11.00;;;17.40;99.90;;;16.90;93.86;97752.31;4985303;28;20080;-67
2022/06/27 05:02:46;;;;;;;11.90;9.32;;;17.40;99.90;;;16.89;93.91;97754.09;4999219;28;20085;-66
2022/06/27 05:05:14;;;;;;;14.45;9.68;;;17.40;99.90;;;16.84;93.92;97765.84;4994417;28;20042;-65
2022/06/27 05:07:43;;;;;;;13.68;9.93;;;17.40;99.90;;;16.98;93.93;97755.28;4997180;28;20157;-66
2022/06/27 05:10:13;;;;;;;16.48;10.73;;;17.40;99.90;;;17.08;93.97;97752.88;4997716;28;20070;-66
2022/06/27 05:12:40;;;;;;;16.02;9.38;;;17.50;99.90;;;16.95;94.03;97739.75;4997422;28;20136;-66
2022/06/27 05:15:08;;;;;;;15.30;10.05;;;17.50;99.90;;;17.12;94.09;97743.88;5000148;28;20042;-66
2022/06/27 05:17:35;;;;;;;15.15;10.88;;;17.50;99.90;;;17.01;94.21;97762.94;4996704;28;20073;-66
2022/06/27 05:20:03;;;;;;;14.60;10.55;;;17.60;99.90;;;17.00;94.16;97786.66;5001103;28;20069;-66
2022/06/27 05:22:30;;;;;;;15.55;11.30;;;17.60;99.90;;;16.85;94.25;97776.19;4994036;28;20096;-66
2022/06/27 05:24:58;;;;;;;12.40;10.75;;;17.60;99.90;;;16.94;94.23;97785.25;4998699;28;20045;-67
2022/06/27 05:27:26;;;;;;;14.55;12.00;;;17.50;99.90;;;16.88;94.23;97802.25;4999300;28;20138;-65
2022/06/27 05:29:53;;;;;;;10.30;9.18;;;17.50;99.90;;;16.76;94.18;97808.22;4997440;28;20141;-66
2022/06/27 05:32:20;;;;;;;17.80;13.05;;;17.50;99.90;;;16.82;94.05;97807.03;4994631;28;20098;-65
2022/06/27 05:34:48;;;;;;;17.05;12.25;;;17.50;99.90;;;16.81;93.98;97810.56;5001325;28;20567;-64
2022/06/27 05:37:15;;;;;;;13.68;11.30;;;17.40;99.90;;;16.94;93.87;97808.84;4997652;28;20081;-63
2022/06/27 05:39:44;;;;;;;21.25;15.68;;;17.40;99.90;;;16.92;93.90;97815.97;4999111;28;20092;-64
2022/06/27 05:42:11;;;;;;;22.10;16.00;;;17.40;99.90;;;16.72;93.89;97814.63;4997600;28;20674;-65
2022/06/27 05:44:38;;;;;;;23.58;15.48;;;17.40;99.90;;;16.88;93.78;97814.50;4994666;28;20514;-66
2022/06/27 05:47:05;;;;;;;18.25;13.82;;;17.40;99.90;;;16.86;93.77;97826.88;4998338;28;20125;-66
2022/06/27 05:49:33;;;;;;;25.63;15.43;;;17.40;99.90;;;16.89;93.72;97822.25;4998737;28;20057;-66
2022/06/27 05:52:00;;;;;;;21.45;15.73;;;17.40;99.90;;;17.05;93.70;97824.72;5004364;28;20078;-66
2022/06/27 05:54:28;;;;;;;33.42;18.70;;;17.40;99.90;;;16.86;93.74;97832.13;4997172;28;20129;-65
2022/06/27 05:56:56;;;;;;;55.67;25.85;;;17.40;99.90;;;16.62;93.69;97829.22;4998601;28;20042;-65
2022/06/27 05:59:24;;;;;;;67.85;30.15;;;17.40;99.90;;;16.57;93.61;97832.13;4996078;28;20089;-65
2022/06/27 06:01:52;;;;;;;87.75;30.25;;;17.40;99.90;;;16.59;93.51;97839.91;4998101;28;20050;-65
2022/06/27 06:04:20;;;;;;;103.15;37.50;;;17.30;99.90;;;16.48;93.48;97851.06;4993316;28;20517;-66
2022/06/27 06:06:47;;;;;;;54.90;28.13;;;17.30;99.90;;;16.46;93.39;97848.53;4998150;28;20089;-67
2022/06/27 06:09:15;;;;;;;94.80;35.95;;;17.20;99.90;;;16.52;93.31;97837.66;4997868;28;20638;-66
2022/06/27 06:11:48;;;;;;;40.83;27.75;;;17.20;99.90;;;16.51;93.31;97814.19;4997958;28;20050;-67
2022/06/27 06:14:18;;;;;;;42.05;28.77;;;17.20;99.90;;;16.47;93.42;97804.84;4995677;28;20054;-67
2022/06/27 06:16:47;;;;;;;30.63;23.50;;;17.20;99.90;;;16.81;93.50;97834.16;4996449;28;20086;-66
2022/06/27 06:19:14;;;;;;;26.05;19.08;;;17.30;99.90;;;16.96;93.71;97837.59;4999699;28;20053;-65
2022/06/27 06:21:41;;;;;;;21.55;18.13;;;17.40;99.90;;;16.88;94.08;97838.94;4998259;28;20133;-67
2022/06/27 06:24:09;;;;;;;20.80;16.35;;;17.40;99.90;;;17.06;94.40;97833.44;4997356;28;20132;-67
2022/06/27 06:26:37;;;;;;;18.15;15.70;;;17.50;99.90;;;16.76;95.00;97833.59;4994055;28;20160;-66
2022/06/27 06:29:12;;;;;;;19.77;15.98;;;17.60;99.90;;;17.08;95.26;97840.28;4997798;28;20065;-67
2022/06/27 06:31:44;;;;;;;22.17;15.70;;;17.80;99.90;;;17.20;95.75;97829.94;4998174;28;20046;-66
2022/06/27 06:34:12;;;;;;;;;;;18.00;99.90;;;17.89;95.96;97814.84;5013496;28;20515;-67
2022/06/27 06:36:41;;;;;;;19.67;13.38;;;18.30;99.90;;;17.87;96.90;97809.69;4997375;28;20039;-67
2022/06/27 06:39:09;;;;;;;17.52;13.95;;;18.50;99.90;;;18.09;97.92;97802.97;4996887;28;20100;-67
2022/06/27 06:41:37;;;;;;;14.63;12.05;;;18.80;99.90;;;18.07;99.38;97792.56;4998177;28;20472;-67
2022/06/27 06:44:05;;;;;;;16.00;11.52;;;18.90;99.90;;;18.74;100.00;97793.97;4998566;28;20104;-67
2022/06/27 06:46:34;;;;;;;14.32;11.60;;;19.10;99.90;;;18.35;100.00;97793.25;4999387;28;20080;-66
2022/06/27 06:49:09;;;;;;;16.15;12.35;;;19.20;99.90;;;18.37;100.00;97776.41;4989936;28;20043;-66
2022/06/27 06:51:39;;;;;;;18.20;12.93;;;19.30;99.90;;;18.46;100.00;97772.28;5015135;28;20060;-67
2022/06/27 06:54:15;;;;;;;13.85;11.73;;;19.30;99.90;;;18.04;100.00;97747.28;5013043;28;20081;-67
2022/06/27 06:56:42;;;;;;;13.13;11.27;;;19.20;99.90;;;18.30;100.00;97741.03;5015179;28;20821;-66
2022/06/27 06:59:09;;;;;;;16.40;12.30;;;19.00;99.90;;;18.15;100.00;97727.19;5015777;28;20081;-65
2022/06/27 07:01:37;;;;;;;18.95;12.13;;;18.90;99.90;;;18.23;100.00;97738.94;5014273;28;20504;-65
2022/06/27 07:04:04;;;;;;;15.20;11.35;;;18.80;99.90;;;17.92;100.00;97739.28;5015534;28;20054;-66
2022/06/27 07:06:32;;;;;;;12.82;9.85;;;18.70;99.90;;;17.54;100.00;97727.03;5015071;28;20513;-66
2022/06/27 07:09:00;;;;;;;10.80;9.10;;;18.60;99.90;;;17.68;100.00;97710.31;5020359;28;20132;-67
2022/06/27 07:11:31;;;;;;;10.30;8.30;;;18.60;99.90;;;17.89;100.00;97701.94;5017562;28;20123;-66
2022/06/27 07:13:59;;;;;;;14.77;9.15;;;18.60;99.90;;;17.74;100.00;97722.16;5017012;28;20041;-67
2022/06/27 07:16:27;;;;;;;10.55;8.63;;;18.70;99.90;;;17.79;100.00;97727.97;5015415;28;20113;-66
2022/06/27 07:18:55;;;;;;;13.98;9.27;;;18.90;99.90;;;18.16;100.00;97730.66;5020357;28;20050;-67
2022/06/27 07:21:25;;;;;;;12.65;8.15;;;18.90;99.90;;;18.18;100.00;97732.22;5017739;28;20535;-66
2022/06/27 07:23:53;;;;;;;11.82;8.10;;;19.10;99.90;;;18.17;100.00;97738.41;5017760;28;20144;-66
2022/06/27 07:26:21;;;;;;;13.10;7.70;;;19.40;99.90;;;18.48;100.00;97733.59;5019406;28;20045;-66
2022/06/27 07:28:49;;;;;;;9.20;7.85;;;19.60;99.90;;;18.34;100.00;97731.97;5017168;28;20057;-67
2022/06/27 07:31:17;;;;;;;9.45;6.25;;;19.60;99.90;;;18.27;100.00;97717.59;5020272;28;20121;-67
2022/06/27 07:33:48;;;;;;;9.63;6.68;;;19.40;99.90;;;18.06;100.00;97727.00;5017606;28;20428;-67
2022/06/27 07:36:16;;;;;;;9.13;5.78;;;19.20;99.90;;;18.16;100.00;97725.41;5015820;28;20517;-64
2022/06/27 07:38:45;;;;;;;8.65;5.03;;;19.10;99.90;;;18.07;100.00;97712.94;5021637;28;20534;-67
2022/06/27 07:41:14;;;;;;;7.85;5.00;;;19.10;99.90;;;18.44;100.00;97695.34;5019193;28;20052;-67
2022/06/27 07:43:44;;;;;;;6.35;5.03;;;19.20;99.90;;;18.67;100.00;97711.22;5020216;28;20107;-66
2022/06/27 07:46:12;;;;;;;7.80;5.88;;;19.30;99.90;;;18.79;100.00;97700.69;5016451;28;20106;-67
2022/06/27 07:48:39;;;;;;;9.20;5.47;;;19.50;99.90;;;18.58;100.00;97708.31;5017602;28;20536;-66
2022/06/27 07:51:06;;;;;;;8.32;5.35;;;19.50;99.90;;;18.64;100.00;97701.78;5016799;28;20172;-67
2022/06/27 07:53:35;;;;;;;6.72;5.80;;;19.60;99.90;;;18.29;100.00;97702.56;5020509;28;20526;-67
2022/06/27 07:56:06;;;;;;;6.50;5.10;;;19.60;99.90;;;18.55;100.00;97703.28;5017415;28;20137;-67
2022/06/27 07:58:38;;;;;;;8.35;4.70;;;19.50;99.90;;;18.47;100.00;97710.06;5015523;28;20471;-67
2022/06/27 08:01:11;;;;;;;10.10;5.65;;;19.50;99.90;;;18.43;100.00;97717.34;5018344;28;20108;-66
2022/06/27 08:03:39;;;;;;;9.43;4.97;;;19.50;99.90;;;18.46;100.00;97732.03;5023062;28;20144;-66
2022/06/27 08:06:15;;;;;;;7.88;4.93;;;19.50;99.90;;;18.68;100.00;97728.66;5019401;28;20563;-67
2022/06/27 08:08:46;;;;;;;5.18;3.58;;;19.50;99.90;;;18.53;100.00;97733.28;5018986;28;20132;-66
2022/06/27 08:11:23;;;;;;;6.40;4.13;;;19.60;99.90;;;18.25;100.00;97752.81;5015884;28;20051;-65
2022/06/27 08:13:53;;;;;;;7.35;4.70;;;19.60;99.90;;;18.54;100.00;97767.34;5018437;28;20132;-66
2022/06/27 08:16:23;;;;;;;5.45;4.15;;;19.60;99.90;;;18.62;100.00;97761.53;5019254;28;20129;-66
2022/06/27 08:18:52;;;;;;;10.98;5.63;;;19.60;99.90;;;18.34;100.00;97760.03;5018556;28;20544;-65
2022/06/27 08:21:25;;;;;;;6.78;4.57;;;19.60;99.90;;;18.27;100.00;97767.53;5018401;28;20104;-66
2022/06/27 08:24:02;;;;;;;9.80;4.30;;;19.50;99.90;;;18.32;100.00;97756.69;5015941;28;20081;-66
2022/06/27 08:26:31;;;;;;;8.32;4.43;;;19.50;99.90;;;18.59;100.00;97756.50;5015625;28;20046;-67
2022/06/27 08:28:59;;;;;;;5.90;3.47;;;19.50;99.90;;;18.97;100.00;97751.06;5021818;28;20080;-67
2022/06/27 08:31:27;;;;;;;7.20;3.30;;;19.60;99.90;;;19.03;100.00;97770.84;5017660;28;20049;-67
2022/06/27 08:34:04;;;;;;;6.05;3.40;;;19.70;99.90;;;18.69;100.00;97754.88;5017736;28;20136;-67
2022/06/27 08:36:35;;;;;;;8.73;3.85;;;19.90;99.90;;;18.65;100.00;97773.59;5017325;28;20085;-67
2022/06/27 08:39:11;;;;;;;5.30;3.43;;;20.10;99.90;;;18.65;100.00;97779.69;5015360;28;20057;-66
2022/06/27 08:41:38;;;;;;;5.55;3.47;;;20.10;99.90;;;18.81;100.00;97776.81;5018240;28;20184;-66
2022/06/27 08:44:06;;;;;;;7.80;4.05;;;20.00;99.90;;;18.67;100.00;97784.84;5015307;28;20045;-66
2022/06/27 08:46:35;;;;;;;4.45;3.53;;;19.90;99.90;;;18.81;100.00;97790.81;5017202;28;20069;-67
2022/06/27 08:49:04;;;;;;;4.40;2.50;;;19.90;99.90;;;18.61;100.00;97788.78;5018009;28;20400;-66
2022/06/27 08:51:33;;;;;;;4.63;2.03;;;20.00;99.90;;;18.79;100.00;97798.00;5017504;28;20085;-65
2022/06/27 08:54:01;;;;;;;11.95;2.30;;;20.00;99.90;;;18.54;100.00;97811.16;5019104;28;20058;-66
2022/06/27 08:56:30;;;;;;;3.58;1.90;;;19.90;99.90;;;18.85;100.00;97804.59;5018696;28;20081;-67
2022/06/27 08:58:59;;;;;;;4.53;2.15;;;19.80;99.90;;;19.11;100.00;97809.72;5015514;28;20124;-66
2022/06/27 09:01:30;;;;;;;4.28;2.42;;;19.80;99.90;;;18.72;100.00;97803.75;5012019;28;20208;-68
2022/06/27 09:04:02;;;;;;;4.13;2.38;;;19.80;99.90;;;18.62;100.00;97800.13;5018594;28;20425;-66
2022/06/27 09:06:43;;;;;;;7.85;2.90;;;19.90;99.90;;;18.71;100.00;97815.25;5013309;28;20131;-66
2022/06/27 09:09:14;;;;;;;3.83;2.25;;;20.10;99.90;;;18.65;100.00;97823.56;5012222;28;20508;-65
2022/06/27 09:11:44;;;;;;;3.53;1.50;;;20.10;99.90;;;19.00;100.00;97815.78;5014227;28;20053;-65
2022/06/27 09:14:39;;;;;;;3.90;2.10;;;20.00;99.90;;;18.39;100.00;97819.19;5017022;28;20553;-66
2022/06/27 09:17:14;;;;;;;3.60;1.90;;;19.90;99.90;;;18.32;100.00;97827.63;5019534;28;20041;-65
2022/06/27 09:19:53;;;;;;;4.32;2.00;;;19.60;99.90;;;18.55;100.00;97837.34;5017273;28;20049;-65
2022/06/27 09:22:25;;;;;;;4.78;2.38;;;19.50;99.90;;;18.46;100.00;97843.25;5020158;28;20069;-66
2022/06/27 09:25:13;;;;;;;4.03;2.55;;;19.50;99.90;;;18.39;100.00;97834.97;5025309;28;21953;-67
2022/06/27 09:27:44;;;;;;;4.90;2.88;;;19.30;99.90;;;18.30;100.00;97835.63;5030073;28;20045;-66
2022/06/27 09:30:22;;;;;;;5.70;2.83;;;19.20;99.90;;;18.05;100.00;97833.84;5027203;28;20100;-66
2022/06/27 09:33:00;;;;;;;5.32;2.42;;;19.20;99.90;;;18.09;100.00;97839.75;5023345;28;20068;-66
2022/06/27 09:35:33;;;;;;;7.15;2.97;;;19.10;99.90;;;17.95;100.00;97843.31;5023582;28;20053;-64
2022/06/27 09:38:04;;;;;;;3.63;2.90;;;19.00;99.90;;;18.00;100.00;97850.88;5029369;28;20092;-65
2022/06/27 09:40:33;;;;;;;6.00;3.30;;;18.90;99.90;;;17.69;100.00;97856.38;5027269;28;20522;-63
2022/06/27 09:43:06;;;;;;;4.55;3.33;;;18.80;99.90;;;17.77;100.00;97854.09;5021019;28;20053;-68
2022/06/27 09:45:33;;;;;;;4.32;2.92;;;18.80;99.90;;;17.79;100.00;97856.63;5019076;28;20145;-66
2022/06/27 09:48:06;;;;;;;6.15;3.22;;;18.80;99.90;;;17.72;100.00;97850.06;5017828;28;20048;-67
2022/06/27 09:50:39;;;;;;;7.20;4.00;;;18.70;99.90;;;17.62;100.00;97876.09;5016348;28;20049;-65
2022/06/27 09:53:07;;;;;;;5.30;3.15;;;18.70;99.90;;;17.76;100.00;97869.94;5018558;28;20038;-65
2022/06/27 09:55:36;;;;;;;8.48;4.40;;;18.70;99.90;;;17.65;100.00;97873.28;5017988;28;20045;-65
2022/06/27 09:58:07;;;;;;;5.63;3.25;;;18.70;99.90;;;17.50;100.00;97867.25;5016779;28;20054;-65
2022/06/27 10:00:35;;;;;;;5.35;2.63;;;18.70;99.90;;;17.80;100.00;97868.78;5017143;28;20509;-66
2022/06/27 10:03:05;;;;;;;5.00;2.63;;;18.80;99.90;;;17.71;100.00;97859.75;5017218;28;20185;-66
2022/06/27 10:05:41;;;;;;;5.75;2.10;;;18.90;99.90;;;18.09;100.00;97860.75;5001482;28;20073;-65
2022/06/27 10:08:10;;;;;;;3.55;1.80;;;19.00;99.90;;;18.25;100.00;97847.41;5019849;28;20129;-66
2022/06/27 10:11:08;;;;;;;5.05;1.70;;;19.20;99.90;;;18.29;100.00;97840.97;5021189;28;20112;-66
2022/06/27 10:13:39;;;;;;;3.25;2.03;;;19.30;99.90;;;18.58;100.00;97836.28;5020509;28;20096;-67
2022/06/27 10:16:16;;;;;;;3.00;1.52;;;19.30;99.90;;;18.33;100.00;97822.25;5015250;28;20108;-65
2022/06/27 10:19:03;;;;;;;4.97;1.50;;;19.50;99.90;;;18.38;100.00;97825.41;5010690;28;20050;-66
2022/06/27 10:21:40;;;;;;;2.88;1.27;;;19.60;99.90;;;18.36;100.00;97837.00;5016507;28;20069;-65
2022/06/27 10:24:21;;;;;;;2.17;1.40;;;19.50;99.90;;;18.41;100.00;97829.63;5021001;28;20081;-67
2022/06/27 10:26:51;;;;;;;3.75;1.38;;;19.40;99.90;;;18.21;100.00;97836.25;5016423;28;20138;-65